createdAt,value
2019-02-03T00:01:59.592Z,30.90
2019-02-03T00:04:28.274Z,32.17
2019-02-03T00:07:03.343Z,31.00
2019-02-03T00:09:27.130Z,31.93
2019-02-03T00:11:55.788Z,31.43
2019-02-03T00:14:25.441Z,32.93
2019-02-03T00:16:54.193Z,31.20
2019-02-03T00:19:22.752Z,28.97
2019-02-03T00:21:51.668Z,30.17
2019-02-03T00:24:20.227Z,29.47
2019-02-03T00:26:48.837Z,30.07
2019-02-03T00:29:17.392Z,27.60
2019-02-03T00:31:46.401Z,29.50
2019-02-03T00:34:14.964Z,27.40
2019-02-03T00:36:43.867Z,23.03
2019-02-03T00:39:12.619Z,21.23
2019-02-03T00:41:41.249Z,24.70
2019-02-03T00:44:09.853Z,26.10
2019-02-03T00:46:38.524Z,27.57
2019-02-03T00:49:07.515Z,25.00
2019-02-03T00:51:36.202Z,26.30
2019-02-03T00:54:06.015Z,27.00
2019-02-03T00:56:34.747Z,24.93
2019-02-03T00:59:03.635Z,26.70
2019-02-03T01:01:32.412Z,28.33
2019-02-03T01:04:00.945Z,29.37
2019-02-03T01:06:29.499Z,27.83
2019-02-03T01:08:58.074Z,27.97
2019-02-03T01:11:26.678Z,27.80
2019-02-03T01:13:55.602Z,30.20
2019-02-03T01:16:24.299Z,30.10
2019-02-03T01:18:53.798Z,30.40
2019-02-03T01:21:22.784Z,32.00
2019-02-03T01:23:51.297Z,33.27
2019-02-03T01:26:19.886Z,31.80
2019-02-03T01:28:48.427Z,32.93
2019-02-03T01:31:17.031Z,33.53
2019-02-03T01:33:45.622Z,35.27
2019-02-03T01:36:14.561Z,34.00
2019-02-03T01:38:43.096Z,35.53
2019-02-03T01:41:11.652Z,35.60
2019-02-03T01:43:40.167Z,34.40
2019-02-03T01:46:08.755Z,38.03
2019-02-03T01:48:39.550Z,36.37
2019-02-03T01:51:08.201Z,35.53
2019-02-03T01:53:36.749Z,36.07
2019-02-03T01:56:05.702Z,35.53
2019-02-03T01:58:34.584Z,38.50
2019-02-03T02:01:03.259Z,36.40
2019-02-03T02:03:31.777Z,38.30
2019-02-03T02:06:00.425Z,38.20
2019-02-03T02:08:28.973Z,36.23
2019-02-03T02:10:57.604Z,40.40
2019-02-03T02:13:26.462Z,40.20
2019-02-03T02:15:55.136Z,41.60
2019-02-03T02:18:23.754Z,38.47
2019-02-03T02:20:52.312Z,38.63
2019-02-03T02:23:21.237Z,38.87
2019-02-03T02:25:50.182Z,41.60
2019-02-03T02:28:18.709Z,36.43
2019-02-03T02:30:47.400Z,37.00
2019-02-03T02:33:16.004Z,37.90
2019-02-03T02:35:44.636Z,37.03
2019-02-03T02:38:13.491Z,36.93
2019-02-03T02:40:42.280Z,36.80
2019-02-03T02:43:10.797Z,36.30
2019-02-03T02:45:39.356Z,36.23
2019-02-03T02:48:08.012Z,35.87
2019-02-03T02:50:41.804Z,36.27
2019-02-03T02:53:10.446Z,34.60
2019-02-03T02:55:39.016Z,36.77
2019-02-03T02:58:07.616Z,35.47
2019-02-03T03:00:36.144Z,35.83
2019-02-03T03:03:05.025Z,33.80
2019-02-03T03:05:33.576Z,34.60
2019-02-03T03:08:02.564Z,34.73
2019-02-03T03:10:31.090Z,35.43
2019-02-03T03:13:00.042Z,36.57
2019-02-03T03:15:28.657Z,34.23
2019-02-03T03:17:57.360Z,34.50
2019-02-03T03:20:25.961Z,34.53
2019-02-03T03:22:55.133Z,35.53
2019-02-03T03:25:23.751Z,34.20
2019-02-03T03:27:52.383Z,35.27
2019-02-03T03:30:23.736Z,35.97
2019-02-03T03:32:52.457Z,35.70
2019-02-03T03:35:21.099Z,33.90
2019-02-03T03:37:49.688Z,34.97
2019-02-03T03:40:21.045Z,32.90
2019-02-03T03:42:49.729Z,34.03
2019-02-03T03:45:18.319Z,34.43
2019-02-03T03:47:46.897Z,35.90
2019-02-03T03:50:16.636Z,35.97
2019-02-03T03:52:45.271Z,36.30
2019-02-03T03:55:14.294Z,34.80
2019-02-03T03:57:43.007Z,32.03
2019-02-03T04:00:23.046Z,34.87
2019-02-03T04:02:52.442Z,35.40
2019-02-03T04:05:21.212Z,34.40
2019-02-03T04:07:50.309Z,37.17
2019-02-03T04:10:23.741Z,34.20
2019-02-03T04:12:52.381Z,36.57
2019-02-03T04:15:21.935Z,35.50
2019-02-03T04:17:51.062Z,37.67
2019-02-03T04:20:30.349Z,37.30
2019-02-03T04:22:59.369Z,36.67
2019-02-03T04:25:27.966Z,36.57
2019-02-03T04:27:56.991Z,37.80
2019-02-03T04:30:26.951Z,36.37
2019-02-03T04:32:55.699Z,38.73
2019-02-03T04:35:24.271Z,34.33
2019-02-03T04:37:52.856Z,35.13
2019-02-03T04:40:22.743Z,35.53
2019-02-03T04:42:51.386Z,36.90
2019-02-03T04:45:22.423Z,37.10
2019-02-03T04:47:50.433Z,38.77
2019-02-03T04:50:20.894Z,35.67
2019-02-03T04:52:49.562Z,35.90
2019-02-03T04:55:20.516Z,38.60
2019-02-03T04:57:49.218Z,35.13
2019-02-03T05:00:20.644Z,36.40
2019-02-03T05:02:49.268Z,37.83
2019-02-03T05:05:18.280Z,37.20
2019-02-03T05:07:47.235Z,35.80
2019-02-03T05:10:16.505Z,34.53
2019-02-03T05:12:45.135Z,36.47
2019-02-03T05:15:16.415Z,36.87
2019-02-03T05:17:45.135Z,35.63
2019-02-03T05:20:16.400Z,38.40
2019-02-03T05:22:45.421Z,36.87
2019-02-03T05:25:14.883Z,37.97
2019-02-03T05:27:44.654Z,39.40
2019-02-03T05:30:24.913Z,38.37
2019-02-03T05:32:53.665Z,39.20
2019-02-03T05:35:22.451Z,38.93
2019-02-03T05:37:51.052Z,36.57
2019-02-03T05:40:20.016Z,36.60
2019-02-03T05:42:48.595Z,38.20
2019-02-03T05:45:19.277Z,39.20
2019-02-03T05:47:50.055Z,37.73
2019-02-03T05:50:20.198Z,37.50
2019-02-03T05:52:49.199Z,38.23
2019-02-03T05:55:18.923Z,39.53
2019-02-03T05:57:47.753Z,38.90
2019-02-03T06:00:23.424Z,40.27
2019-02-03T06:02:52.291Z,40.40
2019-02-03T06:05:20.824Z,38.20
2019-02-03T06:07:49.725Z,37.40
2019-02-03T06:10:19.007Z,38.77
2019-02-03T06:12:47.904Z,39.03
2019-02-03T06:15:17.117Z,39.00
2019-02-03T06:17:45.680Z,37.53
2019-02-03T06:20:19.500Z,40.07
2019-02-03T06:22:48.626Z,38.60
2019-02-03T06:25:17.777Z,36.70
2019-02-03T06:27:46.654Z,38.10
2019-02-03T06:30:27.137Z,39.13
2019-02-03T06:32:55.725Z,38.80
2019-02-03T06:35:24.341Z,40.07
2019-02-03T06:37:53.966Z,37.03
2019-02-03T06:40:22.978Z,36.60
2019-02-03T06:42:51.540Z,38.90
2019-02-03T06:45:27.526Z,36.80
2019-02-03T06:47:59.215Z,36.87
2019-02-03T06:50:27.554Z,36.53
2019-02-03T06:52:56.488Z,38.27
2019-02-03T06:55:25.043Z,39.43
2019-02-03T06:57:54.047Z,37.23
2019-02-03T07:00:22.574Z,38.50
2019-02-03T07:02:51.142Z,37.90
2019-02-03T07:05:19.654Z,37.73
2019-02-03T07:07:48.599Z,38.63
2019-02-03T07:10:17.134Z,37.60
2019-02-03T07:12:45.674Z,37.17
2019-02-03T07:15:14.400Z,36.03
2019-02-03T07:17:42.984Z,38.47
2019-02-03T07:20:19.050Z,36.23
2019-02-03T07:22:47.609Z,37.27
2019-02-03T07:25:16.180Z,36.50
2019-02-03T07:27:44.782Z,39.47
2019-02-03T07:30:19.344Z,37.03
2019-02-03T07:32:47.970Z,36.77
2019-02-03T07:35:16.876Z,37.07
2019-02-03T07:37:46.010Z,38.73
2019-02-03T07:40:16.931Z,38.00
2019-02-03T07:42:45.521Z,36.50
2019-02-03T07:45:14.251Z,36.97
2019-02-03T07:47:43.432Z,36.20
2019-02-03T07:50:14.700Z,36.60
2019-02-03T07:52:45.394Z,38.97
2019-02-03T07:55:15.191Z,36.87
2019-02-03T07:57:43.911Z,35.30
2019-02-03T08:00:15.140Z,35.90
2019-02-03T08:02:43.689Z,37.50
2019-02-03T08:05:13.057Z,36.17
2019-02-03T08:07:41.663Z,38.37
2019-02-03T08:10:24.515Z,36.80
2019-02-03T08:12:45.633Z,34.90
2019-02-03T08:15:16.499Z,34.80
2019-02-03T08:17:45.117Z,36.00
2019-02-03T08:20:19.095Z,35.97
2019-02-03T08:22:47.672Z,35.43
2019-02-03T08:25:17.963Z,32.90
2019-02-03T08:27:46.918Z,32.33
2019-02-03T08:30:18.951Z,35.00
2019-02-03T08:32:47.679Z,32.90
2019-02-03T08:35:16.214Z,33.53
2019-02-03T08:37:44.958Z,33.13
2019-02-03T08:40:36.646Z,35.57
2019-02-03T08:42:56.177Z,32.03
2019-02-03T08:45:25.854Z,33.10
2019-02-03T08:47:54.402Z,30.47
2019-02-03T08:50:24.227Z,29.03
2019-02-03T08:52:52.977Z,32.10
2019-02-03T08:55:21.631Z,31.70
2019-02-03T08:57:50.243Z,31.70
2019-02-03T09:00:24.279Z,31.50
2019-02-03T09:02:52.890Z,32.57
2019-02-03T09:05:21.515Z,31.43
2019-02-03T09:07:51.239Z,31.70
2019-02-03T09:10:22.381Z,30.37
2019-02-03T09:12:51.765Z,30.40
2019-02-03T09:15:29.181Z,30.10
2019-02-03T09:17:57.711Z,30.63
2019-02-03T09:20:36.102Z,31.70
2019-02-03T09:23:05.444Z,29.50
2019-02-03T09:25:33.988Z,31.10
2019-02-03T09:28:02.592Z,30.50
2019-02-03T09:30:33.782Z,28.60
2019-02-03T09:33:03.033Z,26.90
2019-02-03T09:35:31.655Z,28.40
2019-02-03T09:38:00.424Z,29.43
2019-02-03T09:40:31.671Z,27.87
2019-02-03T09:43:03.465Z,26.17
2019-02-03T09:45:32.474Z,27.80
2019-02-03T09:48:01.311Z,28.30
2019-02-03T09:50:31.377Z,27.70
2019-02-03T09:53:01.601Z,28.30
2019-02-03T09:55:30.945Z,27.27
2019-02-03T09:58:00.715Z,30.57
2019-02-03T10:00:35.351Z,26.63
2019-02-03T10:03:06.036Z,27.27
2019-02-03T10:05:37.142Z,28.10
2019-02-03T10:08:05.679Z,25.67
2019-02-03T10:10:36.982Z,27.60
2019-02-03T10:13:06.343Z,26.80
2019-02-03T10:15:34.968Z,24.80
2019-02-03T10:18:04.274Z,25.13
2019-02-03T10:20:32.868Z,23.27
2019-02-03T10:23:01.433Z,24.63
2019-02-03T10:25:31.183Z,23.33
2019-02-03T10:27:59.889Z,24.47
2019-02-03T10:30:29.983Z,25.80
2019-02-03T10:32:59.547Z,25.87
2019-02-03T10:35:30.243Z,23.80
2019-02-03T10:37:58.930Z,24.63
2019-02-03T10:40:29.805Z,25.30
2019-02-03T10:42:59.969Z,24.10
2019-02-03T10:45:29.164Z,25.57
2019-02-03T10:47:57.982Z,26.00
2019-02-03T10:50:31.774Z,24.10
2019-02-03T10:53:03.191Z,26.70
2019-02-03T10:55:33.071Z,24.43
2019-02-03T10:58:01.674Z,26.23
2019-02-03T11:00:36.194Z,25.97
2019-02-03T11:03:05.410Z,25.60
2019-02-03T11:05:41.043Z,24.53
2019-02-03T11:08:12.480Z,24.70
2019-02-03T11:10:41.235Z,23.40
2019-02-03T11:13:09.833Z,24.57
2019-02-03T11:15:38.659Z,25.67
2019-02-03T11:18:07.314Z,24.73
2019-02-03T11:20:36.287Z,23.33
2019-02-03T11:23:05.075Z,24.40
2019-02-03T11:25:34.246Z,25.07
2019-02-03T11:28:03.343Z,24.60
2019-02-03T11:30:32.126Z,24.63
2019-02-03T11:33:06.941Z,23.70
2019-02-03T11:35:32.214Z,23.97
2019-02-03T11:38:01.260Z,24.03
2019-02-03T11:40:32.118Z,24.73
2019-02-03T11:43:01.559Z,24.80
2019-02-03T11:45:33.245Z,23.90
2019-02-03T11:48:02.312Z,23.30
2019-02-03T11:50:36.727Z,26.30
2019-02-03T11:53:07.671Z,23.93
2019-02-03T11:55:36.205Z,23.87
2019-02-03T11:58:05.087Z,23.23
2019-02-03T12:00:33.739Z,22.80
2019-02-03T12:03:03.268Z,24.67
2019-02-03T12:05:32.067Z,23.40
2019-02-03T12:08:00.613Z,21.43
2019-02-03T12:10:30.675Z,23.93
2019-02-03T12:13:00.158Z,23.10
2019-02-03T12:15:28.994Z,23.27
2019-02-03T12:17:58.913Z,22.60
2019-02-03T12:20:27.779Z,23.60
2019-02-03T12:22:56.610Z,23.00
2019-02-03T12:25:30.770Z,23.37
2019-02-03T12:28:01.053Z,23.73
2019-02-03T12:30:32.395Z,22.50
2019-02-03T12:33:01.949Z,24.33
2019-02-03T12:35:30.693Z,22.77
2019-02-03T12:37:59.504Z,23.23
2019-02-03T12:40:30.556Z,22.03
2019-02-03T12:42:59.184Z,24.30
2019-02-03T12:45:29.529Z,22.60
2019-02-03T12:47:58.289Z,24.90
2019-02-03T12:50:26.841Z,22.43
2019-02-03T12:52:55.677Z,23.07
2019-02-03T12:55:27.764Z,23.10
2019-02-03T12:57:56.516Z,22.57
2019-02-03T13:00:27.429Z,22.33
2019-02-03T13:02:56.110Z,23.70
2019-02-03T13:05:26.287Z,23.60
2019-02-03T13:07:55.944Z,22.73
2019-02-03T13:10:27.371Z,23.30
2019-02-03T13:12:56.204Z,23.50
2019-02-03T13:15:45.824Z,21.10
2019-02-03T13:18:14.905Z,23.17
2019-02-03T13:20:43.818Z,25.17
2019-02-03T13:23:12.853Z,27.90
2019-02-03T13:25:41.640Z,23.23
2019-02-03T13:28:10.449Z,23.10
2019-02-03T13:30:47.703Z,21.67
2019-02-03T13:33:16.630Z,22.73
2019-02-03T13:35:45.172Z,20.90
2019-02-03T13:38:13.791Z,21.13
2019-02-03T13:40:42.381Z,20.43
2019-02-03T13:43:11.181Z,20.17
2019-02-03T13:45:40.289Z,19.20
2019-02-03T13:48:09.820Z,19.13
2019-02-03T13:50:38.438Z,19.47
2019-02-03T13:53:07.109Z,19.57
2019-02-03T13:55:35.754Z,18.50
2019-02-03T13:58:04.608Z,18.53
2019-02-03T14:00:40.863Z,18.37
2019-02-03T14:03:09.652Z,18.17
2019-02-03T14:05:38.269Z,20.70
2019-02-03T14:08:06.945Z,17.60
2019-02-03T14:10:36.222Z,18.13
2019-02-03T14:13:06.774Z,17.10
2019-02-03T14:15:35.452Z,16.80
2019-02-03T14:18:05.597Z,17.60
2019-02-03T14:20:34.485Z,16.73
2019-02-03T14:23:03.342Z,17.43
2019-02-03T14:25:32.422Z,16.80
2019-02-03T14:28:02.165Z,17.50
2019-02-03T14:30:40.225Z,16.97
2019-02-03T14:33:05.304Z,16.43
2019-02-03T14:35:34.028Z,17.30
2019-02-03T14:38:06.185Z,16.03
2019-02-03T14:40:35.032Z,16.47
2019-02-03T14:43:03.705Z,16.40
2019-02-03T14:45:32.349Z,16.87
2019-02-03T14:48:01.064Z,15.93
2019-02-03T14:50:29.771Z,17.30
2019-02-03T14:53:04.468Z,19.33
2019-02-03T14:55:36.592Z,15.83
2019-02-03T14:58:06.073Z,16.07
2019-02-03T15:00:43.914Z,15.70
2019-02-03T15:03:18.390Z,15.60
2019-02-03T15:05:47.341Z,15.67
2019-02-03T15:08:16.227Z,17.67
2019-02-03T15:10:44.835Z,16.10
2019-02-03T15:13:15.945Z,16.00
2019-02-03T15:15:43.855Z,15.67
2019-02-03T15:18:12.700Z,14.50
2019-02-03T15:20:41.832Z,16.63
2019-02-03T15:23:10.536Z,15.30
2019-02-03T15:25:39.276Z,15.67
2019-02-03T15:28:10.691Z,16.60
2019-02-03T15:30:42.455Z,16.57
2019-02-03T15:33:11.606Z,16.40
2019-02-03T15:35:40.397Z,16.47
2019-02-03T15:38:09.500Z,15.63
2019-02-03T15:40:38.255Z,16.63
2019-02-03T15:43:07.093Z,16.20
2019-02-03T15:45:36.065Z,16.60
2019-02-03T15:48:05.321Z,15.90
2019-02-03T15:50:34.011Z,15.37
2019-02-03T15:53:02.825Z,16.03
2019-02-03T15:55:34.612Z,17.10
2019-02-03T15:58:03.611Z,15.37
2019-02-03T16:00:37.864Z,14.47
2019-02-03T16:03:08.680Z,15.50
2019-02-03T16:05:37.487Z,16.13
2019-02-03T16:08:08.198Z,18.00
2019-02-03T16:10:36.977Z,18.83
2019-02-03T16:13:06.723Z,19.07
2019-02-03T16:15:36.146Z,19.10
2019-02-03T16:18:06.150Z,17.17
2019-02-03T16:20:35.286Z,16.90
2019-02-03T16:23:04.757Z,17.00
2019-02-03T16:25:35.158Z,17.57
2019-02-03T16:28:06.255Z,16.43
2019-02-03T16:30:39.712Z,16.80
2019-02-03T16:33:11.030Z,15.13
2019-02-03T16:35:42.040Z,16.13
2019-02-03T16:38:22.472Z,15.73
2019-02-03T16:40:43.887Z,15.70
2019-02-03T16:43:12.777Z,15.37
2019-02-03T16:45:41.482Z,16.53
2019-02-03T16:48:10.186Z,16.67
2019-02-03T16:50:38.919Z,14.97
2019-02-03T16:53:08.054Z,15.93
2019-02-03T16:55:36.758Z,16.43
2019-02-03T16:58:06.287Z,16.57
2019-02-03T17:00:34.879Z,15.40
2019-02-03T17:03:04.169Z,15.50
2019-02-03T17:05:34.162Z,14.97
2019-02-03T17:08:04.273Z,17.00
2019-02-03T17:10:34.041Z,14.43
2019-02-03T17:13:02.689Z,16.03
2019-02-03T17:15:37.200Z,15.73
2019-02-03T17:18:08.722Z,15.50
2019-02-03T17:20:39.047Z,15.70
2019-02-03T17:23:07.691Z,16.67
2019-02-03T17:25:54.988Z,16.33
2019-02-03T17:28:23.601Z,17.03
2019-02-03T17:30:53.584Z,16.70
2019-02-03T17:33:22.602Z,17.13
2019-02-03T17:35:54.671Z,14.63
2019-02-03T17:38:23.080Z,16.33
2019-02-03T17:40:51.877Z,16.47
2019-02-03T17:43:20.539Z,16.37
2019-02-03T17:45:49.531Z,15.53
2019-02-03T17:48:18.419Z,16.60
2019-02-03T17:50:47.249Z,16.87
2019-02-03T17:53:16.020Z,15.37
2019-02-03T17:55:44.947Z,15.80
2019-02-03T17:58:15.069Z,14.57
2019-02-03T18:00:45.395Z,16.27
2019-02-03T18:03:15.112Z,16.50
2019-02-03T18:05:43.921Z,14.67
2019-02-03T18:08:12.510Z,15.90
2019-02-03T18:10:41.087Z,15.77
2019-02-03T18:13:09.864Z,16.10
2019-02-03T18:15:38.549Z,16.50
2019-02-03T18:18:08.853Z,15.57
2019-02-03T18:20:37.551Z,14.63
2019-02-03T18:23:06.832Z,16.50
2019-02-03T18:25:35.598Z,16.60
2019-02-03T18:28:04.640Z,14.07
2019-02-03T18:30:37.829Z,13.87
2019-02-03T18:33:07.603Z,15.17
2019-02-03T18:35:36.246Z,14.33
2019-02-03T18:38:13.625Z,15.87
2019-02-03T18:40:42.482Z,14.93
2019-02-03T18:43:11.394Z,14.37
2019-02-03T18:45:40.269Z,15.00
2019-02-03T18:48:09.223Z,14.50
2019-02-03T18:50:39.700Z,13.87
2019-02-03T18:53:08.518Z,17.63
2019-02-03T18:55:43.569Z,17.87
2019-02-03T18:58:13.851Z,14.50
2019-02-03T19:00:43.024Z,12.90
2019-02-03T19:03:11.684Z,14.17
2019-02-03T19:05:44.417Z,13.40
2019-02-03T19:08:14.256Z,14.67
2019-02-03T19:10:43.096Z,13.47
2019-02-03T19:13:11.733Z,14.50
2019-02-03T19:15:40.898Z,12.83
2019-02-03T19:18:09.597Z,12.63
2019-02-03T19:20:43.081Z,13.77
2019-02-03T19:23:16.552Z,12.73
2019-02-03T19:25:45.331Z,13.80
2019-02-03T19:28:14.797Z,13.90
2019-02-03T19:30:44.091Z,13.67
2019-02-03T19:33:12.831Z,12.87
2019-02-03T19:35:41.734Z,13.40
2019-02-03T19:38:10.447Z,11.83
2019-02-03T19:40:39.086Z,12.33
2019-02-03T19:43:08.455Z,11.30
2019-02-03T19:45:37.843Z,12.33
2019-02-03T19:48:06.664Z,12.27
2019-02-03T19:50:40.639Z,10.60
2019-02-03T19:53:12.528Z,11.07
2019-02-03T19:55:41.545Z,10.57
2019-02-03T19:58:10.152Z,10.00
2019-02-03T20:00:41.230Z,11.30
2019-02-03T20:03:09.979Z,10.90
2019-02-03T20:05:38.984Z,9.97
2019-02-03T20:08:07.897Z,9.47
2019-02-03T20:10:37.900Z,9.10
2019-02-03T20:13:07.418Z,9.40
2019-02-03T20:15:36.389Z,9.00
2019-02-03T20:18:05.476Z,8.50
2019-02-03T20:20:37.413Z,9.13
2019-02-03T20:23:06.787Z,9.13
2019-02-03T20:25:36.590Z,8.40
2019-02-03T20:28:06.204Z,8.20
2019-02-03T20:30:38.592Z,8.50
2019-02-03T20:33:05.406Z,8.40
2019-02-03T20:35:34.309Z,7.60
2019-02-03T20:38:03.600Z,7.90
2019-02-03T20:40:43.798Z,7.90
2019-02-03T20:43:13.202Z,9.03
2019-02-03T20:45:49.265Z,8.53
2019-02-03T20:48:12.629Z,7.90
2019-02-03T20:50:41.723Z,7.67
2019-02-03T20:53:10.466Z,7.33
2019-02-03T20:55:39.451Z,7.40
2019-02-03T20:58:08.023Z,7.67
2019-02-03T21:00:37.789Z,7.03
2019-02-03T21:03:06.968Z,6.63
2019-02-03T21:05:35.878Z,6.70
2019-02-03T21:08:06.363Z,6.30
2019-02-03T21:10:34.927Z,7.20
2019-02-03T21:13:11.312Z,6.67
2019-02-03T21:15:37.276Z,6.80
2019-02-03T21:18:08.646Z,6.90
2019-02-03T21:20:37.640Z,7.43
2019-02-03T21:23:06.261Z,7.67
2019-02-03T21:25:35.272Z,6.30
2019-02-03T21:28:04.618Z,6.43
2019-02-03T21:30:35.405Z,6.33
2019-02-03T21:33:04.623Z,6.10
2019-02-03T21:35:33.476Z,6.57
2019-02-03T21:38:02.382Z,6.50
2019-02-03T21:40:32.263Z,5.33
2019-02-03T21:43:02.736Z,5.80
2019-02-03T21:45:31.361Z,6.40
2019-02-03T21:48:00.151Z,5.40
2019-02-03T21:50:30.843Z,5.47
2019-02-03T21:52:59.482Z,5.90
2019-02-03T21:55:28.170Z,6.80
2019-02-03T21:57:56.791Z,5.63
2019-02-03T22:00:30.941Z,5.87
2019-02-03T22:02:59.687Z,5.57
2019-02-03T22:05:28.955Z,5.37
2019-02-03T22:07:58.354Z,6.37
2019-02-03T22:10:35.360Z,5.60
2019-02-03T22:13:04.473Z,6.17
2019-02-03T22:15:33.526Z,5.60
2019-02-03T22:18:02.126Z,6.53
2019-02-03T22:20:31.165Z,5.30
2019-02-03T22:22:59.733Z,6.77
2019-02-03T22:25:28.247Z,6.00
2019-02-03T22:27:56.824Z,5.80
2019-02-03T22:30:30.981Z,5.37
2019-02-03T22:32:59.857Z,5.87
2019-02-03T22:35:28.523Z,5.70
2019-02-03T22:37:57.084Z,5.70
2019-02-03T22:40:26.342Z,5.57
2019-02-03T22:42:54.942Z,5.43
2019-02-03T22:45:24.927Z,5.90
2019-02-03T22:47:55.262Z,5.33
2019-02-03T22:50:26.824Z,6.20
2019-02-03T22:52:56.080Z,5.10
2019-02-03T22:55:25.011Z,6.07
2019-02-03T22:57:53.643Z,5.40
2019-02-03T23:00:51.798Z,5.80
2019-02-03T23:03:26.019Z,6.10
2019-02-03T23:05:54.880Z,6.20
2019-02-03T23:08:23.391Z,5.80
2019-02-03T23:10:51.928Z,6.00
2019-02-03T23:13:20.520Z,6.10
2019-02-03T23:15:49.638Z,5.57
2019-02-03T23:18:18.181Z,5.90
2019-02-03T23:20:46.760Z,6.03
2019-02-03T23:23:15.354Z,6.63
2019-02-03T23:25:43.931Z,6.57
2019-02-03T23:28:13.391Z,6.77
2019-02-03T23:30:42.160Z,6.10
2019-02-03T23:33:10.680Z,5.87
2019-02-03T23:35:39.255Z,6.47
2019-02-03T23:38:07.783Z,5.83
2019-02-03T23:40:36.433Z,6.40
2019-02-03T23:43:05.250Z,7.10
2019-02-03T23:45:34.296Z,7.13
2019-02-03T23:48:03.253Z,6.50
2019-02-03T23:50:31.858Z,6.30
2019-02-03T23:53:00.393Z,7.57
2019-02-03T23:55:29.028Z,6.33
2019-02-03T23:57:57.591Z,7.00
